createdAt,value
2023-05-10T00:01:57.428Z,8.13
2023-05-10T00:04:28.226Z,5.60
2023-05-10T00:06:56.736Z,6.63
2023-05-10T00:09:24.978Z,5.63
2023-05-10T00:11:53.171Z,5.93
2023-05-10T00:14:21.395Z,7.15
2023-05-10T00:16:49.897Z,13.13
2023-05-10T00:19:19.619Z,5.93
2023-05-10T00:21:48.122Z,9.27
2023-05-10T00:24:16.329Z,6.72
2023-05-10T00:26:44.619Z,7.75
2023-05-10T00:29:13.280Z,10.05
2023-05-10T00:31:41.566Z,5.70
2023-05-10T00:34:09.771Z,6.72
2023-05-10T00:36:39.324Z,7.97
2023-05-10T00:39:09.069Z,6.15
2023-05-10T00:41:37.370Z,6.72
2023-05-10T00:44:07.353Z,6.32
2023-05-10T00:46:37.052Z,11.20
2023-05-10T00:49:05.973Z,11.27
2023-05-10T00:51:34.559Z,7.90
2023-05-10T00:54:06.292Z,6.72
2023-05-10T00:56:34.930Z,9.00
2023-05-10T00:59:03.517Z,7.60
2023-05-10T01:01:32.694Z,9.02
2023-05-10T01:04:01.623Z,10.88
2023-05-10T01:06:30.097Z,8.07
2023-05-10T01:08:58.627Z,5.93
2023-05-10T01:11:28.504Z,7.40
2023-05-10T01:13:59.563Z,7.72
2023-05-10T01:16:29.185Z,7.38
2023-05-10T01:18:57.564Z,6.82
2023-05-10T01:21:35.215Z,8.13
2023-05-10T01:24:46.127Z,8.82
2023-05-10T01:28:02.612Z,7.50
2023-05-10T01:31:15.540Z,9.35
2023-05-10T01:33:54.254Z,10.18
2023-05-10T01:36:37.149Z,6.22
2023-05-10T01:39:13.788Z,5.88
2023-05-10T01:41:50.336Z,9.63
2023-05-10T01:44:31.615Z,5.30
2023-05-10T01:47:09.375Z,7.47
2023-05-10T01:49:44.088Z,7.07
2023-05-10T01:52:16.756Z,8.15
2023-05-10T01:54:56.047Z,7.30
2023-05-10T01:57:29.742Z,6.32
2023-05-10T02:00:01.715Z,6.30
2023-05-10T02:02:34.220Z,8.07
2023-05-10T02:05:07.409Z,13.15
2023-05-10T02:07:38.490Z,7.22
2023-05-10T02:10:09.510Z,8.85
2023-05-10T02:12:42.877Z,7.90
2023-05-10T02:15:14.809Z,7.85
2023-05-10T02:17:45.990Z,5.10
2023-05-10T02:20:18.122Z,8.57
2023-05-10T02:22:50.625Z,5.38
2023-05-10T02:25:23.120Z,7.95
2023-05-10T02:27:53.316Z,11.88
2023-05-10T02:30:23.582Z,9.50
2023-05-10T02:32:53.632Z,9.85
2023-05-10T02:35:25.064Z,6.45
2023-05-10T02:37:55.095Z,8.75
2023-05-10T02:40:28.506Z,8.35
2023-05-10T02:43:01.143Z,5.70
2023-05-10T02:45:34.176Z,6.75
2023-05-10T02:48:02.626Z,6.20
2023-05-10T02:50:35.199Z,6.72
2023-05-10T02:53:12.877Z,6.55
2023-05-10T02:55:44.560Z,5.63
2023-05-10T02:58:13.441Z,7.35
2023-05-10T03:00:41.787Z,6.85
2023-05-10T03:03:10.088Z,7.82
2023-05-10T03:05:39.894Z,10.13
2023-05-10T03:08:08.798Z,8.57
2023-05-10T03:10:52.432Z,7.70
2023-05-10T03:13:36.211Z,5.85
2023-05-10T03:16:13.237Z,12.10
2023-05-10T03:18:46.482Z,9.45
2023-05-10T03:21:21.645Z,9.32
2023-05-10T03:24:00.619Z,7.38
2023-05-10T03:26:31.032Z,7.47
2023-05-10T03:29:10.653Z,8.15
2023-05-10T03:31:40.207Z,8.02
2023-05-10T03:34:08.982Z,8.93
2023-05-10T03:36:39.005Z,9.02
2023-05-10T03:39:07.337Z,6.15
2023-05-10T03:41:35.853Z,10.63
2023-05-10T03:44:04.147Z,6.40
2023-05-10T03:46:32.492Z,7.32
2023-05-10T03:49:00.817Z,6.50
2023-05-10T03:51:29.252Z,8.02
2023-05-10T03:53:59.127Z,7.60
2023-05-10T03:56:27.676Z,11.20
2023-05-10T03:58:56.031Z,9.50
2023-05-10T04:01:24.215Z,7.97
2023-05-10T04:03:52.500Z,6.38
2023-05-10T04:06:21.113Z,6.40
2023-05-10T04:08:49.480Z,7.90
2023-05-10T04:11:19.079Z,9.50
2023-05-10T04:13:47.293Z,10.25
2023-05-10T04:16:15.555Z,7.03
2023-05-10T04:18:43.810Z,7.72
2023-05-10T04:21:15.428Z,9.52
2023-05-10T04:23:43.733Z,11.45
2023-05-10T04:26:12.092Z,10.77
2023-05-10T04:28:41.693Z,8.80
2023-05-10T04:31:12.437Z,7.75
2023-05-10T04:33:41.370Z,9.07
2023-05-10T04:36:10.364Z,8.43
2023-05-10T04:38:38.611Z,7.82
2023-05-10T04:41:08.346Z,7.57
2023-05-10T04:43:37.368Z,6.93
2023-05-10T04:46:08.009Z,10.73
2023-05-10T04:48:36.407Z,8.30
2023-05-10T04:51:05.727Z,11.10
2023-05-10T04:53:34.445Z,9.75
2023-05-10T04:56:02.793Z,6.82
2023-05-10T04:58:31.083Z,6.07
2023-05-10T05:00:59.349Z,9.25
2023-05-10T05:03:29.132Z,10.02
2023-05-10T05:05:57.461Z,7.28
2023-05-10T05:08:25.723Z,9.15
2023-05-10T05:10:54.028Z,9.85
2023-05-10T05:13:22.276Z,8.45
2023-05-10T05:15:50.631Z,6.75
2023-05-10T05:18:18.896Z,12.07
2023-05-10T05:20:48.495Z,6.18
2023-05-10T05:23:17.899Z,7.25
2023-05-10T05:25:46.231Z,10.25
2023-05-10T05:28:14.902Z,11.27
2023-05-10T05:30:43.333Z,8.20
2023-05-10T05:33:11.736Z,10.73
2023-05-10T05:35:39.985Z,7.20
2023-05-10T05:38:09.604Z,9.05
2023-05-10T05:40:38.015Z,8.52
2023-05-10T05:43:06.298Z,8.00
2023-05-10T05:45:34.549Z,12.52
2023-05-10T05:48:03.051Z,8.75
2023-05-10T05:50:31.353Z,9.18
2023-05-10T05:52:59.617Z,10.18
2023-05-10T05:55:30.509Z,13.13
2023-05-10T05:57:58.960Z,7.47
2023-05-10T06:00:27.299Z,6.90
2023-05-10T06:02:55.809Z,6.82
2023-05-10T06:05:26.643Z,7.95
2023-05-10T06:08:02.117Z,9.48
2023-05-10T06:10:31.808Z,12.20
2023-05-10T06:13:00.158Z,8.55
2023-05-10T06:15:29.071Z,8.73
2023-05-10T06:17:57.493Z,7.93
2023-05-10T06:20:25.972Z,12.73
2023-05-10T06:22:54.215Z,8.77
2023-05-10T06:25:22.488Z,9.68
2023-05-10T06:27:56.380Z,6.53
2023-05-10T06:30:28.237Z,8.50
2023-05-10T06:32:57.258Z,13.13
2023-05-10T06:35:25.600Z,10.20
2023-05-10T06:37:53.863Z,10.70
2023-05-10T06:40:22.356Z,7.18
2023-05-10T06:42:52.290Z,8.65
2023-05-10T06:45:20.658Z,8.02
2023-05-10T06:47:49.170Z,8.55
2023-05-10T06:50:17.557Z,11.73
2023-05-10T06:52:45.950Z,9.95
2023-05-10T06:55:14.246Z,12.60
2023-05-10T06:57:42.587Z,7.13
2023-05-10T07:00:13.610Z,9.88
2023-05-10T07:02:42.128Z,10.70
2023-05-10T07:05:11.198Z,9.52
2023-05-10T07:07:39.419Z,7.75
2023-05-10T07:10:09.170Z,6.93
2023-05-10T07:12:37.476Z,6.63
2023-05-10T07:15:07.075Z,9.98
2023-05-10T07:17:36.762Z,11.45
2023-05-10T07:20:06.088Z,8.40
2023-05-10T07:22:34.439Z,10.25
2023-05-10T07:25:03.289Z,12.18
2023-05-10T07:27:32.288Z,7.95
2023-05-10T07:30:01.494Z,9.23
2023-05-10T07:32:30.243Z,6.60
2023-05-10T07:34:59.922Z,7.03
2023-05-10T07:37:28.178Z,7.55
2023-05-10T07:39:57.117Z,6.95
2023-05-10T07:42:25.471Z,10.38
2023-05-10T07:44:53.775Z,8.48
2023-05-10T07:47:22.427Z,10.77
2023-05-10T07:49:50.844Z,11.55
2023-05-10T07:52:21.954Z,12.43
2023-05-10T07:54:50.970Z,11.68
2023-05-10T07:57:20.334Z,7.22
2023-05-10T07:59:48.947Z,8.43
2023-05-10T08:02:17.506Z,7.28
2023-05-10T08:04:46.492Z,8.95
2023-05-10T08:07:14.838Z,12.23
2023-05-10T08:09:44.427Z,13.00
2023-05-10T08:12:12.626Z,17.92
2023-05-10T08:14:40.913Z,11.27
2023-05-10T08:17:09.275Z,8.57
2023-05-10T08:19:37.566Z,9.38
2023-05-10T08:22:05.924Z,13.20
2023-05-10T08:24:35.678Z,12.63
2023-05-10T08:27:05.324Z,7.10
2023-05-10T08:29:46.303Z,9.02
2023-05-10T08:32:17.592Z,10.15
2023-05-10T08:34:45.842Z,7.22
2023-05-10T08:37:14.506Z,9.95
2023-05-10T08:39:43.110Z,10.35
2023-05-10T08:42:14.608Z,7.63
2023-05-10T08:44:44.372Z,9.68
2023-05-10T08:47:13.766Z,7.30
2023-05-10T08:49:43.764Z,6.70
2023-05-10T08:52:15.081Z,10.85
2023-05-10T08:54:44.703Z,8.55
2023-05-10T08:57:14.421Z,9.55
2023-05-10T08:59:42.689Z,8.60
2023-05-10T09:02:17.235Z,8.25
2023-05-10T09:04:47.690Z,12.02
2023-05-10T09:07:16.924Z,13.57
2023-05-10T09:09:45.909Z,9.65
2023-05-10T09:12:16.631Z,12.98
2023-05-10T09:14:47.557Z,8.25
2023-05-10T09:17:15.925Z,31.60
2023-05-10T09:19:44.224Z,25.50
2023-05-10T09:22:12.600Z,19.80
2023-05-10T09:24:45.963Z,8.52
2023-05-10T09:27:15.531Z,16.20
2023-05-10T09:29:44.931Z,10.18
2023-05-10T09:32:13.789Z,10.85
2023-05-10T09:34:43.244Z,14.18
2023-05-10T09:37:11.546Z,10.57
2023-05-10T09:39:42.205Z,9.30
2023-05-10T09:42:12.103Z,9.35
2023-05-10T09:44:43.456Z,12.00
2023-05-10T09:47:11.726Z,18.42
2023-05-10T09:49:39.894Z,10.80
2023-05-10T09:52:09.548Z,9.75
2023-05-10T09:54:37.972Z,16.80
2023-05-10T09:57:06.222Z,12.85
2023-05-10T09:59:37.061Z,9.80
2023-05-10T10:02:06.929Z,9.73
2023-05-10T10:04:41.793Z,8.60
2023-05-10T10:07:10.963Z,9.23
2023-05-10T10:09:40.481Z,9.07
2023-05-10T10:12:09.567Z,11.02
2023-05-10T10:14:38.042Z,11.98
2023-05-10T10:17:09.226Z,10.60
2023-05-10T10:19:38.330Z,11.85
2023-05-10T10:22:07.595Z,12.75
2023-05-10T10:24:35.842Z,10.15
2023-05-10T10:27:21.534Z,10.55
2023-05-10T10:30:03.690Z,11.15
2023-05-10T10:33:05.567Z,13.23
2023-05-10T10:35:39.236Z,10.65
2023-05-10T10:38:10.842Z,12.93
2023-05-10T10:40:39.513Z,12.50
2023-05-10T10:43:26.449Z,13.98
2023-05-10T10:46:15.766Z,16.60
2023-05-10T10:48:52.319Z,11.95
2023-05-10T10:51:20.655Z,12.50
2023-05-10T10:53:50.468Z,15.00
2023-05-10T10:56:25.207Z,13.05
2023-05-10T10:58:54.547Z,13.07
2023-05-10T11:01:23.087Z,13.88
2023-05-10T11:04:21.310Z,13.38
2023-05-10T11:06:49.864Z,14.57
2023-05-10T11:09:18.499Z,13.20
2023-05-10T11:11:56.179Z,14.85
2023-05-10T11:14:25.044Z,14.85
2023-05-10T11:16:53.677Z,13.38
2023-05-10T11:19:23.391Z,16.98
2023-05-10T11:21:54.971Z,15.52
2023-05-10T11:24:28.812Z,11.77
2023-05-10T11:26:57.186Z,14.65
2023-05-10T11:29:27.165Z,14.50
2023-05-10T11:31:59.378Z,13.63
2023-05-10T11:34:31.749Z,12.73
2023-05-10T11:37:00.446Z,14.30
2023-05-10T11:39:29.560Z,12.63
2023-05-10T11:41:58.511Z,12.82
2023-05-10T11:44:32.625Z,14.98
2023-05-10T11:47:01.763Z,14.73
2023-05-10T11:49:31.660Z,14.70
2023-05-10T11:52:07.560Z,15.02
2023-05-10T11:54:36.819Z,16.02
2023-05-10T11:57:05.817Z,16.30
2023-05-10T11:59:34.155Z,13.88
2023-05-10T12:02:03.051Z,14.10
2023-05-10T12:04:33.231Z,12.52
2023-05-10T12:07:02.136Z,12.43
2023-05-10T12:09:42.747Z,12.20
2023-05-10T12:12:12.693Z,12.82
2023-05-10T12:14:41.024Z,12.35
2023-05-10T12:17:14.115Z,12.15
2023-05-10T12:19:44.647Z,11.40
2023-05-10T12:22:12.956Z,12.88
2023-05-10T12:24:41.192Z,10.65
2023-05-10T12:27:10.960Z,11.30
2023-05-10T12:29:44.704Z,13.15
2023-05-10T12:32:13.053Z,8.93
2023-05-10T12:34:41.332Z,9.23
2023-05-10T12:37:10.916Z,13.80
2023-05-10T12:39:43.672Z,14.43
2023-05-10T12:42:11.993Z,11.70
2023-05-10T12:44:40.683Z,12.15
2023-05-10T12:47:09.146Z,13.68
2023-05-10T12:49:38.411Z,11.90
2023-05-10T12:52:06.723Z,12.48
2023-05-10T12:54:36.556Z,11.07
2023-05-10T12:57:05.156Z,13.07
2023-05-10T12:59:34.293Z,11.48
2023-05-10T13:02:04.168Z,9.93
2023-05-10T13:04:32.477Z,9.18
2023-05-10T13:07:00.864Z,11.95
2023-05-10T13:09:30.477Z,9.35
2023-05-10T13:12:00.153Z,12.10
2023-05-10T13:14:28.985Z,12.35
2023-05-10T13:16:57.476Z,13.43
2023-05-10T13:19:26.168Z,11.80
2023-05-10T13:21:54.369Z,11.88
2023-05-10T13:24:23.217Z,13.55
2023-05-10T13:26:52.305Z,15.13
2023-05-10T13:29:23.414Z,10.45
2023-05-10T13:31:51.827Z,9.90
2023-05-10T13:34:22.270Z,10.82
2023-05-10T13:36:50.524Z,10.80
2023-05-10T13:39:18.961Z,13.73
2023-05-10T13:41:47.192Z,10.55
2023-05-10T13:44:16.380Z,11.68
2023-05-10T13:46:46.108Z,11.43
2023-05-10T13:49:14.522Z,11.32
2023-05-10T13:51:42.752Z,10.63
2023-05-10T13:54:13.437Z,14.60
2023-05-10T13:56:43.404Z,12.13
2023-05-10T13:59:11.776Z,11.18
2023-05-10T14:01:39.980Z,10.77
2023-05-10T14:04:11.177Z,11.98
2023-05-10T14:06:39.544Z,11.50
2023-05-10T14:09:07.956Z,11.70
2023-05-10T14:11:36.337Z,11.90
2023-05-10T14:14:04.589Z,12.02
2023-05-10T14:16:32.825Z,12.73
2023-05-10T14:19:01.200Z,11.65
2023-05-10T14:21:31.671Z,11.27
2023-05-10T14:23:59.918Z,10.80
2023-05-10T14:26:28.962Z,11.70
2023-05-10T14:28:57.310Z,12.20
2023-05-10T14:31:26.565Z,10.15
2023-05-10T14:33:55.349Z,11.32
2023-05-10T14:36:23.648Z,11.30
2023-05-10T14:38:53.334Z,10.35
2023-05-10T14:41:21.578Z,11.05
2023-05-10T14:43:49.826Z,10.52
2023-05-10T14:46:18.155Z,9.23
2023-05-10T14:48:46.642Z,9.30
2023-05-10T14:51:14.962Z,9.80
2023-05-10T14:53:43.190Z,10.55
2023-05-10T14:56:12.780Z,8.80
2023-05-10T14:58:41.086Z,9.82
2023-05-10T15:01:09.385Z,9.80
2023-05-10T15:03:38.454Z,8.98
2023-05-10T15:06:08.034Z,9.23
2023-05-10T15:08:36.309Z,9.40
2023-05-10T15:11:04.752Z,9.10
2023-05-10T15:13:34.342Z,9.85
2023-05-10T15:16:02.659Z,10.50
2023-05-10T15:18:31.344Z,9.40
2023-05-10T15:20:59.704Z,10.07
2023-05-10T15:23:28.023Z,11.15
2023-05-10T15:25:56.778Z,10.63
2023-05-10T15:28:25.290Z,9.68
2023-05-10T15:30:54.952Z,9.07
2023-05-10T15:33:23.409Z,9.40
2023-05-10T15:35:51.677Z,11.25
2023-05-10T15:38:20.252Z,11.73
2023-05-10T15:40:48.511Z,9.25
2023-05-10T15:43:17.196Z,9.88
2023-05-10T15:45:45.445Z,9.07
2023-05-10T15:48:15.147Z,10.77
2023-05-10T15:50:43.364Z,9.73
2023-05-10T15:53:11.587Z,9.68
2023-05-10T15:55:40.120Z,8.63
2023-05-10T15:58:08.573Z,9.23
2023-05-10T16:00:37.012Z,10.38
2023-05-10T16:03:05.456Z,11.00
2023-05-10T16:05:35.250Z,12.25
2023-05-10T16:08:03.649Z,11.63
2023-05-10T16:10:34.118Z,12.43
2023-05-10T16:13:03.783Z,11.00
2023-05-10T16:15:32.114Z,9.63
2023-05-10T16:18:00.672Z,7.70
2023-05-10T16:20:29.940Z,7.82
2023-05-10T16:23:02.693Z,8.93
2023-05-10T16:25:30.908Z,7.88
2023-05-10T16:27:59.857Z,7.47
2023-05-10T16:30:30.321Z,8.70
2023-05-10T16:32:59.726Z,8.60
2023-05-10T16:35:29.825Z,8.15
2023-05-10T16:37:59.426Z,8.30
2023-05-10T16:40:27.721Z,8.65
2023-05-10T16:42:56.015Z,8.60
2023-05-10T16:45:25.705Z,8.90
2023-05-10T16:47:54.655Z,9.25
2023-05-10T16:50:23.135Z,9.35
2023-05-10T16:52:51.372Z,9.30
2023-05-10T16:55:22.051Z,9.27
2023-05-10T16:57:51.194Z,8.75
2023-05-10T17:00:20.827Z,8.40
2023-05-10T17:02:49.227Z,9.50
2023-05-10T17:05:17.891Z,9.38
2023-05-10T17:07:46.380Z,8.65
2023-05-10T17:10:14.939Z,8.93
2023-05-10T17:12:44.793Z,9.98
2023-05-10T17:15:13.742Z,8.38
2023-05-10T17:17:42.118Z,8.20
2023-05-10T17:20:11.659Z,8.68
2023-05-10T17:22:39.913Z,7.28
2023-05-10T17:25:09.565Z,7.40
2023-05-10T17:27:37.818Z,6.65
2023-05-10T17:30:09.529Z,8.90
2023-05-10T17:32:37.826Z,7.53
2023-05-10T17:35:08.537Z,9.60
2023-05-10T17:37:36.864Z,9.45
2023-05-10T17:40:07.750Z,10.63
2023-05-10T17:42:36.082Z,12.48
2023-05-10T17:45:04.847Z,11.52
2023-05-10T17:47:34.575Z,11.55
2023-05-10T17:50:02.922Z,11.05
2023-05-10T17:52:33.471Z,11.02
2023-05-10T17:55:02.381Z,11.45
2023-05-10T17:57:30.852Z,13.25
2023-05-10T17:59:59.092Z,17.00
2023-05-10T18:02:27.403Z,25.05
2023-05-10T18:05:00.042Z,19.33
2023-05-10T18:07:29.939Z,13.82
2023-05-10T18:09:58.313Z,18.33
2023-05-10T18:12:26.749Z,14.23
2023-05-10T18:14:54.990Z,11.85
2023-05-10T18:17:23.302Z,10.57
2023-05-10T18:19:51.867Z,11.57
2023-05-10T18:22:21.621Z,12.65
2023-05-10T18:24:49.932Z,10.98
2023-05-10T18:27:18.310Z,11.45
2023-05-10T18:29:46.650Z,11.43
2023-05-10T18:32:14.967Z,13.10
2023-05-10T18:34:43.314Z,14.98
2023-05-10T18:37:11.764Z,14.40
2023-05-10T18:39:41.475Z,14.88
2023-05-10T18:42:10.406Z,18.73
2023-05-10T18:44:38.613Z,15.88
2023-05-10T18:47:06.850Z,15.80
2023-05-10T18:49:35.152Z,16.98
2023-05-10T18:52:03.430Z,15.38
2023-05-10T18:54:31.657Z,14.88
2023-05-10T18:57:01.454Z,14.27
2023-05-10T18:59:29.754Z,13.40
2023-05-10T19:01:58.354Z,11.25
2023-05-10T19:04:26.904Z,12.38
2023-05-10T19:06:55.781Z,13.10
2023-05-10T19:09:24.279Z,13.60
2023-05-10T19:11:53.055Z,11.88
2023-05-10T19:14:23.024Z,16.70
2023-05-10T19:16:51.546Z,16.33
2023-05-10T19:19:19.835Z,13.65
2023-05-10T19:21:48.725Z,10.93
2023-05-10T19:24:18.049Z,11.00
2023-05-10T19:26:48.576Z,10.80
2023-05-10T19:29:17.115Z,10.02
2023-05-10T19:31:46.982Z,13.98
2023-05-10T19:34:15.357Z,9.75
2023-05-10T19:36:43.642Z,9.45
2023-05-10T19:39:12.112Z,9.90
2023-05-10T19:41:40.417Z,10.10
2023-05-10T19:44:08.800Z,9.63
2023-05-10T19:46:37.146Z,9.75
2023-05-10T19:49:06.811Z,11.63
2023-05-10T19:51:35.256Z,11.32
2023-05-10T19:54:03.692Z,11.38
2023-05-10T19:56:32.023Z,12.38
2023-05-10T19:59:02.891Z,12.20
2023-05-10T20:01:32.672Z,12.82
2023-05-10T20:04:01.130Z,12.68
2023-05-10T20:06:31.637Z,12.27
2023-05-10T20:08:59.980Z,12.32
2023-05-10T20:11:28.230Z,13.25
2023-05-10T20:13:56.912Z,13.32
2023-05-10T20:16:26.761Z,12.98
2023-05-10T20:18:55.598Z,13.15
2023-05-10T20:21:23.984Z,13.13
2023-05-10T20:23:53.703Z,13.57
2023-05-10T20:26:22.577Z,15.00
2023-05-10T20:28:51.120Z,14.05
2023-05-10T20:31:19.390Z,13.90
2023-05-10T20:33:47.695Z,13.57
2023-05-10T20:36:16.009Z,14.40
2023-05-10T20:38:44.235Z,14.38
2023-05-10T20:41:13.812Z,15.05
2023-05-10T20:43:43.438Z,15.38
2023-05-10T20:46:11.819Z,14.75
2023-05-10T20:48:40.141Z,15.05
2023-05-10T20:51:08.436Z,15.93
2023-05-10T20:53:36.697Z,16.13
2023-05-10T20:56:05.069Z,15.90
2023-05-10T20:58:35.425Z,16.10
2023-05-10T21:01:04.048Z,17.85
2023-05-10T21:03:32.495Z,17.70
2023-05-10T21:06:00.829Z,16.75
2023-05-10T21:08:29.126Z,18.80
2023-05-10T21:10:57.479Z,20.95
2023-05-10T21:13:25.773Z,22.05
2023-05-10T21:15:55.563Z,18.52
2023-05-10T21:18:23.891Z,20.55
2023-05-10T21:20:52.381Z,19.90
2023-05-10T21:23:20.656Z,21.67
2023-05-10T21:25:48.966Z,21.33
2023-05-10T21:28:17.352Z,21.08
2023-05-10T21:30:45.617Z,23.13
2023-05-10T21:33:15.319Z,21.65
2023-05-10T21:35:44.057Z,22.05
2023-05-10T21:38:12.442Z,24.70
2023-05-10T21:40:40.966Z,24.02
2023-05-10T21:43:09.567Z,20.02
2023-05-10T21:45:38.088Z,20.30
2023-05-10T21:48:06.503Z,22.77
2023-05-10T21:50:36.637Z,21.55
2023-05-10T21:53:04.964Z,21.63
2023-05-10T21:55:34.221Z,20.50
2023-05-10T21:58:02.633Z,21.23
2023-05-10T22:00:32.802Z,21.17
2023-05-10T22:03:02.405Z,22.70
2023-05-10T22:05:30.731Z,22.95
2023-05-10T22:08:00.307Z,21.25
2023-05-10T22:10:28.594Z,21.27
2023-05-10T22:12:57.182Z,18.67
2023-05-10T22:15:25.453Z,19.70
2023-05-10T22:17:53.912Z,18.38
2023-05-10T22:20:22.334Z,19.00
2023-05-10T22:22:50.639Z,21.42
2023-05-10T22:25:20.506Z,21.27
2023-05-10T22:27:48.829Z,22.75
2023-05-10T22:30:17.968Z,20.65
2023-05-10T22:32:46.643Z,22.60
2023-05-10T22:35:15.012Z,21.95
2023-05-10T22:37:43.227Z,23.02
2023-05-10T22:40:13.232Z,23.08
2023-05-10T22:42:42.851Z,25.30
2023-05-10T22:45:12.722Z,23.98
2023-05-10T22:47:41.021Z,24.08
2023-05-10T22:50:10.769Z,22.80
2023-05-10T22:52:39.820Z,24.85
2023-05-10T22:55:09.131Z,26.88
2023-05-10T22:57:37.785Z,26.27
2023-05-10T23:00:10.707Z,25.15
2023-05-10T23:02:39.095Z,25.23
2023-05-10T23:05:09.115Z,24.05
2023-05-10T23:07:37.563Z,25.20
2023-05-10T23:10:07.131Z,25.77
2023-05-10T23:12:35.385Z,29.92
2023-05-10T23:15:03.749Z,33.97
2023-05-10T23:17:34.071Z,27.88
2023-05-10T23:20:02.348Z,31.25
2023-05-10T23:22:30.697Z,30.20
2023-05-10T23:24:59.208Z,30.77
2023-05-10T23:27:30.272Z,31.27
2023-05-10T23:29:58.628Z,31.83
2023-05-10T23:32:27.107Z,36.50
2023-05-10T23:34:56.758Z,31.65
2023-05-10T23:37:25.142Z,33.80
2023-05-10T23:39:53.584Z,34.22
2023-05-10T23:42:21.880Z,36.08
2023-05-10T23:44:51.429Z,33.97
2023-05-10T23:47:19.865Z,34.38
2023-05-10T23:49:48.144Z,32.35
2023-05-10T23:52:17.846Z,31.48
2023-05-10T23:54:46.235Z,32.63
2023-05-10T23:57:14.529Z,34.42
2023-05-10T23:59:42.869Z,34.45
